West Union, MN (56389)

9:08 PM CDT on September 20, 2014 (GMT -0500)
Sauk Centre | Change Station
CLOSE
Current Station
Airport
Location: Sauk Centre,
Elevation: 1240 ft
Nearby Weather Stations

Elev 1240 ft 45.71 °N, 94.93 °W | Updated 15 minutes ago

Clear
Clear
52 °F
Feels Like 52 °F
N
6
Wind Variable Wind from West

Today
High -- | Low -- °F
--% Chance of Precip.
Yesterday
High -- | Low -- °F
Precip. -- in
7:04 AM 7:21 PM
Waning Crescent, 9% visible
Pressure 29.87 in
Visibility 10.0 miles
Clouds Clear
Dew Point 49 °F
Humidity 90%
Rainfall 0.20 in
Snow Depth Not available.
UV 0 out of 12
Pollen 2.10 out of 12
Air Quality Not available.
Flu Activity Not available.
METAR KD39 210153Z AUTO 27005KT 10SM CLR 11/10 A2987 RMK AO2 T01110095

More Conditions Fewer Conditions

Pressure 29.87 in
Visibility 10.0 miles
Clouds Clear
Dew Point 49 °F
Humidity 90%
Rainfall 0.20 in
Snow Depth Not available.
UV 0 out of 12
Pollen 2.10 out of 12
Air Quality Not available.
Flu Activity Not available.
METAR KD39 210153Z AUTO 27005KT 10SM CLR 11/10 A2987 RMK AO2 T01110095

More Conditions Fewer Conditions

10-Day Weather Forecast

Almanac

Astronomy

Sep. 20, 2014 Rise Set
Actual Time 7:04 AM CDT 7:21 PM CDT
Civil Twilight 6:35 AM CDT 7:51 PM CDT
Nautical Twilight 5:59 AM CDT 8:26 PM CDT
Astronomical Twilight 5:23 AM CDT 9:02 PM CDT
Moon 3:36 AM CDT (9/20) 5:32 PM CDT (9/20)
Length of Visible Light 13h 16m
Length of Day
12h 16m
Tomorrow will be 3m 11s shorter.
Waning Crescent, 9% of the Moon is Illuminated
Today
Waning Crescent
Sep 24
New
Oct 1
First Quarter
Oct 8
Full
Oct 15
Last Quarter

Today's Extremes

State Highs State Lows

Community

WunderPhotos

Upload Photos

1,755,032 photos uploaded!

WunderBlogs® & News

Nearby

Snow Depth

Station Depth Elevation
No new snow has been reported.

Earthquake Activity

City Distance Mag. Time & Date
No recent earthquake activity has been reported nearby.
Minimum magnitude displayed is 2.5.

Coastal Water Temperatures

Place Temperature
No Stations Reporting

Nearby Weather Stations